Time;durP1;ratioP1;P1;durP2;ratioP2;P2;SDS_P1;SDS_P2;PMS_P1;PMS_P2;Temp;Humidity;BMP_temperature;BMP_pressure;BME280_temperature;BME280_humidity;BME280_pressure;Samples;Min_cycle;Max_cycle;Signal;HPM_P1;HPM_P2
2023/07/14 00:00:15;;;;;;;13.02;8.60;;;;;;;;;;5036023;28;20415;-83
2023/07/14 00:02:41;;;;;;;15.65;9.27;;;;;;;;;;5036295;28;20124;-81
2023/07/14 00:05:13;;;;;;;14.80;9.00;;;;;;;;;;5003430;28;20494;-84
2023/07/14 00:07:38;;;;;;;17.23;8.90;;;;;;;;;;5036060;28;20128;-83
2023/07/14 00:10:12;;;;;;;19.60;8.32;;;;;;;;;;5019946;28;20056;-83
2023/07/14 00:12:39;;;;;;;15.52;8.77;;;;;;;;;;5020090;28;20029;-83
2023/07/14 00:15:05;;;;;;;14.80;8.57;;;;;;;;;;5036239;28;20025;-83
2023/07/14 00:17:30;;;;;;;16.60;8.77;;;;;;;;;;5019349;28;20033;-80
2023/07/14 00:19:56;;;;;;;14.35;8.38;;;;;;;;;;5019565;28;20025;-82
2023/07/14 00:22:21;;;;;;;14.05;8.93;;;;;;;;;;5036731;28;20021;-83
2023/07/14 00:24:47;;;;;;;18.75;8.73;;;;;;;;;;5040189;28;20025;-84
2023/07/14 00:27:19;;;;;;;14.85;8.50;;;;;;;;;;5023472;28;20082;-82
2023/07/14 00:29:47;;;;;;;14.40;8.15;;;;;;;;;;5039765;28;20341;-81
2023/07/14 00:32:18;;;;;;;13.38;8.18;;;;;;;;;;5007534;28;20497;-81
2023/07/14 00:34:44;;;;;;;13.68;8.05;;;;;;;;;;5023558;28;20032;-81
2023/07/14 00:37:10;;;;;;;16.08;8.35;;;;;;;;;;5007086;28;20028;-80
2023/07/14 00:39:36;;;;;;;13.85;8.45;;;;;;;;;;5023017;28;20036;-83
2023/07/14 00:42:03;;;;;;;16.92;7.85;;;;;;;;;;5039561;28;20028;-82
2023/07/14 00:44:29;;;;;;;12.40;8.10;;;;;;;;;;5007309;28;20051;-83
2023/07/14 00:46:55;;;;;;;11.85;7.85;;;;;;;;;;5039270;28;20033;-83
2023/07/14 00:49:42;;;;;;;12.98;7.88;;;;;;;;;;5006871;28;20470;-84
2023/07/14 00:52:18;;;;;;;13.90;8.10;;;;;;;;;;5025374;28;20025;-81
2023/07/14 00:54:49;;;;;;;12.27;7.70;;;;;;;;;;5023531;28;20375;-81
2023/07/14 00:57:26;;;;;;;17.30;8.45;;;;;;;;;;5023318;28;20029;-81
2023/07/14 00:59:53;;;;;;;13.95;7.65;;;;;;;;;;5039152;28;20483;-82
2023/07/14 01:02:21;;;;;;;16.02;8.15;;;;;;;;;;5041162;28;20025;-82
2023/07/14 01:04:51;;;;;;;18.98;8.38;;;;;;;;;;5023048;28;20048;-83
2023/07/14 01:07:17;;;;;;;15.43;8.75;;;;;;;;;;5039387;28;20028;-82
2023/07/14 01:09:42;;;;;;;17.50;8.68;;;;;;;;;;5006602;28;20021;-83
2023/07/14 01:12:08;;;;;;;12.52;8.18;;;;;;;;;;5031283;28;20028;-83
2023/07/14 01:14:39;;;;;;;13.48;8.48;;;;;;;;;;5053286;28;20013;-82
2023/07/14 01:17:05;;;;;;;12.23;8.15;;;;;;;;;;5036607;28;20060;-83
2023/07/14 01:19:36;;;;;;;14.93;8.80;;;;;;;;;;5021379;28;20448;-84
2023/07/14 01:22:17;;;;;;;15.27;8.32;;;;;;;;;;5048868;28;20028;-83
2023/07/14 01:25:01;;;;;;;13.55;8.30;;;;;;;;;;5029405;28;20029;-84
2023/07/14 01:27:27;;;;;;;11.07;8.70;;;;;;;;;;5038876;28;20028;-83
2023/07/14 01:29:52;;;;;;;11.80;8.00;;;;;;;;;;5005771;28;20032;-83
2023/07/14 01:32:19;;;;;;;14.57;8.07;;;;;;;;;;5022389;28;20025;-84
2023/07/14 01:34:44;;;;;;;16.85;7.75;;;;;;;;;;5037899;28;20067;-83
2023/07/14 01:37:12;;;;;;;23.65;7.85;;;;;;;;;;5038631;28;20056;-83
2023/07/14 01:39:37;;;;;;;14.57;6.90;;;;;;;;;;5038509;28;20376;-83
2023/07/14 01:42:03;;;;;;;9.98;6.30;;;;;;;;;;5022146;28;20028;-82
2023/07/14 01:44:28;;;;;;;12.35;6.38;;;;;;;;;;5038251;28;20434;-83
2023/07/14 01:46:54;;;;;;;16.73;6.32;;;;;;;;;;5021899;28;20036;-83
2023/07/14 01:49:25;;;;;;;20.98;5.78;;;;;;;;;;5005442;28;20471;-84
2023/07/14 01:51:51;;;;;;;19.90;6.75;;;;;;;;;;5056030;28;20064;-83
2023/07/14 01:54:33;;;;;;;19.95;5.97;;;;;;;;;;5038518;28;20056;-83
2023/07/14 01:56:59;;;;;;;14.10;6.57;;;;;;;;;;5038227;28;20032;-83
2023/07/14 01:59:28;;;;;;;10.27;5.80;;;;;;;;;;5021733;28;20025;-84
2023/07/14 02:01:54;;;;;;;14.13;5.60;;;;;;;;;;5021865;28;20040;-83
2023/07/14 02:04:29;;;;;;;12.02;5.18;;;;;;;;;;5038339;28;20272;-82
2023/07/14 02:06:57;;;;;;;16.90;5.50;;;;;;;;;;5022473;28;20037;-82
2023/07/14 02:09:23;;;;;;;18.17;5.28;;;;;;;;;;5038600;28;20029;-83
2023/07/14 02:11:51;;;;;;;12.23;6.22;;;;;;;;;;5021325;28;20464;-83
2023/07/14 02:14:17;;;;;;;12.00;5.57;;;;;;;;;;5037560;28;20111;-82
2023/07/14 02:16:44;;;;;;;20.95;6.38;;;;;;;;;;5037925;28;20074;-83
2023/07/14 02:19:19;;;;;;;10.68;5.47;;;;;;;;;;5037665;28;20028;-82
2023/07/14 02:21:44;;;;;;;13.00;5.95;;;;;;;;;;5021104;28;20175;-83
2023/07/14 02:24:11;;;;;;;11.25;5.68;;;;;;;;;;5021220;28;20124;-83
2023/07/14 02:26:36;;;;;;;11.05;6.05;;;;;;;;;;5021425;28;20033;-83
2023/07/14 02:29:02;;;;;;;11.80;6.30;;;;;;;;;;5020903;28;20037;-81
2023/07/14 02:31:29;;;;;;;11.48;5.63;;;;;;;;;;5020970;28;20109;-81
2023/07/14 02:33:55;;;;;;;14.30;5.43;;;;;;;;;;5037638;28;20029;-82
2023/07/14 02:36:20;;;;;;;18.05;5.78;;;;;;;;;;5020830;28;20087;-81
2023/07/14 02:38:46;;;;;;;13.50;6.15;;;;;;;;;;5037129;28;20531;-80
2023/07/14 02:41:18;;;;;;;14.98;5.53;;;;;;;;;;5037298;28;20108;-80
2023/07/14 02:43:45;;;;;;;12.10;5.18;;;;;;;;;;5033790;28;20060;-81
2023/07/14 02:46:23;;;;;;;13.07;4.80;;;;;;;;;;5033514;28;20034;-81
2023/07/14 02:48:50;;;;;;;13.77;5.10;;;;;;;;;;5033849;28;20120;-82
2023/07/14 02:51:16;;;;;;;18.10;4.97;;;;;;;;;;5017583;28;20057;-81
2023/07/14 02:53:41;;;;;;;8.48;4.55;;;;;;;;;;5001348;28;20103;-82
2023/07/14 02:56:07;;;;;;;10.45;4.38;;;;;;;;;;5033493;28;20079;-82
2023/07/14 02:58:33;;;;;;;13.25;4.75;;;;;;;;;;5017334;28;20065;-81
2023/07/14 03:00:59;;;;;;;14.05;5.07;;;;;;;;;;5033752;28;20027;-82
2023/07/14 03:03:24;;;;;;;12.40;4.70;;;;;;;;;;5033620;28;20108;-82
2023/07/14 03:05:51;;;;;;;11.25;5.53;;;;;;;;;;5033695;28;20056;-82
2023/07/14 03:08:17;;;;;;;9.23;4.90;;;;;;;;;;5033575;28;20419;-82
2023/07/14 03:10:43;;;;;;;12.43;5.05;;;;;;;;;;5016982;28;20026;-82
2023/07/14 03:13:09;;;;;;;10.43;4.72;;;;;;;;;;5017352;28;20029;-82
2023/07/14 03:15:34;;;;;;;16.27;4.72;;;;;;;;;;5017043;28;20025;-82
2023/07/14 03:18:00;;;;;;;12.27;4.95;;;;;;;;;;5016962;28;20052;-81
2023/07/14 03:20:25;;;;;;;9.70;4.60;;;;;;;;;;5017215;28;20412;-82
2023/07/14 03:22:51;;;;;;;9.02;4.72;;;;;;;;;;5033635;28;20461;-82
2023/07/14 03:25:16;;;;;;;10.93;4.88;;;;;;;;;;5032964;28;20025;-82
2023/07/14 03:27:43;;;;;;;11.27;4.60;;;;;;;;;;5034200;28;20034;-82
2023/07/14 03:30:09;;;;;;;12.43;4.80;;;;;;;;;;5033564;28;20484;-82
2023/07/14 03:32:35;;;;;;;6.25;4.00;;;;;;;;;;5017264;28;20033;-82
2023/07/14 03:35:00;;;;;;;11.25;4.22;;;;;;;;;;5034841;28;20045;-83
2023/07/14 03:37:26;;;;;;;7.03;3.47;;;;;;;;;;5035068;28;20388;-81
2023/07/14 03:39:52;;;;;;;9.35;3.72;;;;;;;;;;5035913;28;20120;-82
2023/07/14 03:42:17;;;;;;;6.65;2.60;;;;;;;;;;5022001;28;20028;-82
2023/07/14 03:44:42;;;;;;;11.13;3.67;;;;;;;;;;5055003;28;20045;-82
2023/07/14 03:47:08;;;;;;;4.00;3.00;;;;;;;;;;5037191;28;20101;-82
2023/07/14 03:49:34;;;;;;;5.32;3.10;;;;;;;;;;5037578;28;20033;-82
2023/07/14 03:52:00;;;;;;;13.95;3.10;;;;;;;;;;5057453;28;20073;-82
2023/07/14 03:54:25;;;;;;;6.07;3.03;;;;;;;;;;5040263;28;20029;-82
2023/07/14 03:56:52;;;;;;;5.55;2.95;;;;;;;;;;5035124;28;20021;-81
2023/07/14 03:59:17;;;;;;;9.60;2.95;;;;;;;;;;5032953;28;20071;-82
2023/07/14 04:01:43;;;;;;;5.40;2.88;;;;;;;;;;5032933;28;20076;-81
2023/07/14 04:04:08;;;;;;;8.90;2.90;;;;;;;;;;5032920;28;20029;-82
2023/07/14 04:06:33;;;;;;;11.77;3.50;;;;;;;;;;5033261;28;20038;-81
2023/07/14 04:09:00;;;;;;;6.88;2.90;;;;;;;;;;5032794;28;20025;-81
2023/07/14 04:11:25;;;;;;;12.45;3.33;;;;;;;;;;5034114;28;20036;-82
2023/07/14 04:13:50;;;;;;;5.40;3.28;;;;;;;;;;5016260;28;20029;-82
2023/07/14 04:16:16;;;;;;;6.25;3.20;;;;;;;;;;5032625;28;20096;-82
2023/07/14 04:18:42;;;;;;;7.10;3.05;;;;;;;;;;5032515;28;20417;-82
2023/07/14 04:21:09;;;;;;;8.07;2.95;;;;;;;;;;5016326;28;20361;-82
2023/07/14 04:23:35;;;;;;;6.70;2.80;;;;;;;;;;5015875;28;20463;-82
2023/07/14 04:26:01;;;;;;;4.95;2.88;;;;;;;;;;5016218;28;20025;-82
2023/07/14 04:28:27;;;;;;;8.60;3.08;;;;;;;;;;5016539;28;20436;-81
2023/07/14 04:30:53;;;;;;;10.75;3.30;;;;;;;;;;5016119;28;20025;-82
2023/07/14 04:33:19;;;;;;;5.47;2.90;;;;;;;;;;5016318;28;20033;-82
2023/07/14 04:35:44;;;;;;;4.80;3.20;;;;;;;;;;4999528;28;20362;-81
2023/07/14 04:38:09;;;;;;;11.32;3.08;;;;;;;;;;5033395;28;20487;-83
2023/07/14 04:40:40;;;;;;;4.93;3.10;;;;;;;;;;5033638;28;20441;-83
2023/07/14 04:43:05;;;;;;;9.90;2.85;;;;;;;;;;5032584;28;20041;-81
2023/07/14 04:45:31;;;;;;;7.72;3.85;;;;;;;;;;5035921;28;20037;-79
2023/07/14 04:47:56;;;;;;;8.57;3.17;;;;;;;;;;5035643;28;20112;-78
2023/07/14 04:50:22;;;;;;;9.70;2.65;;;;;;;;;;5053911;28;20514;-81
2023/07/14 04:52:47;;;;;;;6.10;3.00;;;;;;;;;;5053293;28;20052;-81
2023/07/14 04:55:13;;;;;;;9.10;3.40;;;;;;;;;;5035402;28;20028;-82
2023/07/14 04:57:38;;;;;;;8.07;3.60;;;;;;;;;;5035698;28;20033;-85
2023/07/14 05:00:05;;;;;;;12.98;3.67;;;;;;;;;;5035705;28;20029;-84
2023/07/14 05:02:30;;;;;;;7.65;3.22;;;;;;;;;;5053663;28;20102;-86
2023/07/14 05:05:13;;;;;;;9.60;3.15;;;;;;;;;;5035870;28;20444;-84
2023/07/14 05:07:38;;;;;;;9.82;3.25;;;;;;;;;;5035667;28;20119;-85
2023/07/14 05:10:04;;;;;;;10.70;3.00;;;;;;;;;;5037660;28;20124;-85
2023/07/14 05:12:30;;;;;;;8.07;3.13;;;;;;;;;;5039024;28;20478;-87
2023/07/14 05:14:56;;;;;;;5.03;2.72;;;;;;;;;;5038916;28;20021;-85
2023/07/14 05:17:21;;;;;;;5.25;2.70;;;;;;;;;;5039082;28;20365;-87
2023/07/14 05:19:46;;;;;;;6.03;2.85;;;;;;;;;;5039523;28;20036;-88
2023/07/14 05:22:12;;;;;;;9.38;2.70;;;;;;;;;;5043926;28;20040;-88
2023/07/14 05:24:37;;;;;;;7.78;2.80;;;;;;;;;;5024753;28;20124;-79
2023/07/14 05:27:03;;;;;;;9.75;2.90;;;;;;;;;;5056429;28;20056;-79
2023/07/14 05:29:28;;;;;;;11.43;2.90;;;;;;;;;;5039266;28;20025;-78
2023/07/14 05:31:55;;;;;;;7.10;2.80;;;;;;;;;;5038983;28;20364;-86
2023/07/14 05:34:20;;;;;;;8.30;2.85;;;;;;;;;;5038688;28;20036;-85
2023/07/14 05:36:46;;;;;;;10.65;3.00;;;;;;;;;;5042527;28;20033;-90
2023/07/14 05:39:12;;;;;;;5.70;2.47;;;;;;;;;;5028800;28;20033;-87
2023/07/14 05:41:37;;;;;;;5.68;2.38;;;;;;;;;;5026345;28;20064;-90
2023/07/14 05:44:03;;;;;;;5.22;2.55;;;;;;;;;;5041835;28;20049;-88
2023/07/14 05:46:29;;;;;;;7.90;2.45;;;;;;;;;;5041259;28;20052;-91
2023/07/14 05:48:54;;;;;;;8.57;2.42;;;;;;;;;;5007839;28;20456;-89
2023/07/14 05:51:20;;;;;;;7.35;2.40;;;;;;;;;;5043498;28;20464;-91
2023/07/14 05:53:45;;;;;;;5.70;2.30;;;;;;;;;;5024061;28;20029;-91
2023/07/14 05:56:11;;;;;;;6.93;2.00;;;;;;;;;;5025618;28;20120;-87
2023/07/14 05:58:36;;;;;;;4.45;2.15;;;;;;;;;;5021648;28;20529;-86
2023/07/14 06:01:02;;;;;;;5.45;2.20;;;;;;;;;;5022445;28;20033;-86
2023/07/14 06:03:29;;;;;;;4.13;1.95;;;;;;;;;;5038897;28;20441;-87
2023/07/14 06:05:56;;;;;;;5.15;1.75;;;;;;;;;;5040169;28;20375;-87
2023/07/14 06:08:21;;;;;;;4.55;1.60;;;;;;;;;;5022165;28;20029;-87
2023/07/14 06:10:47;;;;;;;8.05;1.90;;;;;;;;;;5021859;28;20021;-86
2023/07/14 06:13:13;;;;;;;3.70;1.60;;;;;;;;;;5021773;28;20047;-85
2023/07/14 06:15:38;;;;;;;6.10;1.77;;;;;;;;;;5021333;28;20139;-85
2023/07/14 06:18:04;;;;;;;6.30;2.17;;;;;;;;;;5037406;28;20025;-85
2023/07/14 06:20:32;;;;;;;4.60;1.98;;;;;;;;;;5020121;28;20032;-84
2023/07/14 06:22:58;;;;;;;;;;;;;;;;;;5037235;28;20021;-82
2023/07/14 06:25:23;;;;;;;4.63;1.73;;;;;;;;;;5019728;28;19932;-84
2023/07/14 06:27:49;;;;;;;2.85;1.40;;;;;;;;;;5036101;28;20029;-83
2023/07/14 06:30:14;;;;;;;1.85;1.27;;;;;;;;;;5036444;28;20036;-85
2023/07/14 06:32:39;;;;;;;2.90;1.60;;;;;;;;;;5021507;28;20048;-85
2023/07/14 06:35:06;;;;;;;3.42;1.50;;;;;;;;;;5004474;28;20468;-83
2023/07/14 06:37:31;;;;;;;5.65;1.45;;;;;;;;;;5037599;28;20040;-84
2023/07/14 06:39:57;;;;;;;4.53;1.30;;;;;;;;;;5037501;28;20024;-84
2023/07/14 06:42:22;;;;;;;4.90;1.50;;;;;;;;;;5004975;28;20158;-87
2023/07/14 06:44:48;;;;;;;3.38;1.50;;;;;;;;;;5016570;28;20465;-82
2023/07/14 06:47:14;;;;;;;4.43;1.30;;;;;;;;;;5034475;28;20514;-85
2023/07/14 06:49:39;;;;;;;4.20;1.52;;;;;;;;;;5017089;28;20116;-85
2023/07/14 06:52:05;;;;;;;4.78;1.50;;;;;;;;;;5016756;28;20147;-84
2023/07/14 06:54:31;;;;;;;3.17;1.55;;;;;;;;;;5032960;28;20087;-82
2023/07/14 06:56:57;;;;;;;3.38;1.52;;;;;;;;;;5031412;28;20037;-84
2023/07/14 06:59:22;;;;;;;1.85;1.52;;;;;;;;;;5015865;28;20378;-84
2023/07/14 07:01:48;;;;;;;5.95;1.52;;;;;;;;;;5031611;28;20384;-84
2023/07/14 07:06:48;;;;;;;2.70;1.45;;;;;;;;;;4873700;26;20049;-83
2023/07/14 07:09:14;;;;;;;4.53;1.45;;;;;;;;;;5018962;28;20376;-80
2023/07/14 07:11:39;;;;;;;6.88;1.33;;;;;;;;;;5035818;28;20029;-80
2023/07/14 07:14:04;;;;;;;6.25;1.58;;;;;;;;;;5053825;28;20105;-80
2023/07/14 07:16:30;;;;;;;4.20;1.50;;;;;;;;;;5053656;28;20110;-80
2023/07/14 07:18:56;;;;;;;3.83;1.50;;;;;;;;;;5035766;28;20044;-80
2023/07/14 07:21:22;;;;;;;4.72;1.40;;;;;;;;;;5036479;28;20029;-80
2023/07/14 07:23:47;;;;;;;4.05;1.52;;;;;;;;;;5052716;28;20132;-80
2023/07/14 07:26:12;;;;;;;6.75;1.88;;;;;;;;;;5018686;28;20124;-79
2023/07/14 07:28:38;;;;;;;6.13;1.40;;;;;;;;;;5052670;28;20974;-80
2023/07/14 07:31:09;;;;;;;2.92;1.60;;;;;;;;;;5018673;28;20044;-79
2023/07/14 07:33:35;;;;;;;2.30;1.52;;;;;;;;;;5018843;28;20029;-80
2023/07/14 07:36:00;;;;;;;1.95;1.38;;;;;;;;;;5035961;28;20448;-80
2023/07/14 07:38:26;;;;;;;1.45;1.23;;;;;;;;;;5035966;28;20033;-80
2023/07/14 07:40:51;;;;;;;2.78;1.55;;;;;;;;;;5036534;28;20082;-80
2023/07/14 07:43:17;;;;;;;6.18;1.90;;;;;;;;;;5036200;28;20060;-80
2023/07/14 07:45:48;;;;;;;2.03;1.83;;;;;;;;;;5003416;28;20029;-80
2023/07/14 07:48:14;;;;;;;3.75;1.50;;;;;;;;;;5036455;28;20132;-79
2023/07/14 07:50:39;;;;;;;3.83;1.55;;;;;;;;;;5054166;28;20056;-79
2023/07/14 07:53:05;;;;;;;4.43;1.60;;;;;;;;;;5054403;28;20025;-80
2023/07/14 07:55:30;;;;;;;2.55;1.40;;;;;;;;;;5054659;28;20100;-80
2023/07/14 07:57:55;;;;;;;3.85;1.40;;;;;;;;;;5053853;28;20371;-78
2023/07/14 08:00:21;;;;;;;7.05;1.33;;;;;;;;;;5035863;28;20464;-79
2023/07/14 08:02:46;;;;;;;4.82;1.52;;;;;;;;;;5035993;28;20025;-79
2023/07/14 08:05:13;;;;;;;4.05;1.42;;;;;;;;;;5054096;28;20048;-80
2023/07/14 08:07:38;;;;;;;3.92;1.50;;;;;;;;;;5019678;28;20025;-80
2023/07/14 08:10:05;;;;;;;3.38;1.58;;;;;;;;;;5053863;28;20035;-79
2023/07/14 08:12:30;;;;;;;3.80;1.35;;;;;;;;;;5019715;28;20025;-79
2023/07/14 08:14:56;;;;;;;2.33;1.23;;;;;;;;;;5019406;28;20456;-79
2023/07/14 08:17:26;;;;;;;1.88;1.20;;;;;;;;;;5019666;28;20025;-79
2023/07/14 08:19:51;;;;;;;2.22;1.38;;;;;;;;;;5053518;28;20121;-79
2023/07/14 08:22:17;;;;;;;2.08;1.42;;;;;;;;;;5034086;28;20128;-80
2023/07/14 08:24:42;;;;;;;3.90;1.73;;;;;;;;;;5017944;28;20029;-79
2023/07/14 08:27:08;;;;;;;1.73;1.20;;;;;;;;;;5034481;28;20040;-79
2023/07/14 08:29:33;;;;;;;2.15;1.33;;;;;;;;;;5033841;28;20033;-79
2023/07/14 08:31:59;;;;;;;1.88;1.40;;;;;;;;;;5018863;28;20372;-79
2023/07/14 08:34:27;;;;;;;4.55;1.67;;;;;;;;;;5036168;28;20075;-77
2023/07/14 08:36:52;;;;;;;3.15;1.50;;;;;;;;;;5035976;28;20456;-79
2023/07/14 08:39:18;;;;;;;2.65;1.40;;;;;;;;;;5052045;28;20039;-78
2023/07/14 08:41:46;;;;;;;4.43;1.50;;;;;;;;;;5002351;28;20037;-78
2023/07/14 08:44:26;;;;;;;2.50;1.35;;;;;;;;;;5055417;28;20031;-80
2023/07/14 08:47:15;;;;;;;2.38;1.50;;;;;;;;;;5038772;28;20452;-78
2023/07/14 08:49:47;;;;;;;3.33;1.50;;;;;;;;;;5041452;28;20025;-78
2023/07/14 08:52:39;;;;;;;3.72;1.52;;;;;;;;;;5040362;28;20357;-79
2023/07/14 08:55:04;;;;;;;4.50;1.58;;;;;;;;;;5036100;28;20444;-80
2023/07/14 08:57:30;;;;;;;2.53;1.60;;;;;;;;;;5038028;28;20139;-79
2023/07/14 08:59:57;;;;;;;5.43;1.95;;;;;;;;;;5004843;28;20039;-79
2023/07/14 09:02:34;;;;;;;2.22;1.80;;;;;;;;;;5056150;28;20025;-79
2023/07/14 09:05:01;;;;;;;5.47;1.75;;;;;;;;;;5056139;28;20080;-79
2023/07/14 09:07:27;;;;;;;2.58;1.90;;;;;;;;;;5039183;28;20062;-79
2023/07/14 09:09:52;;;;;;;5.35;1.67;;;;;;;;;;5021687;28;20031;-78
2023/07/14 09:12:34;;;;;;;2.55;1.48;;;;;;;;;;5021601;28;20037;-79
2023/07/14 09:15:10;;;;;;;6.28;1.48;;;;;;;;;;5055655;28;20056;-78
2023/07/14 09:17:42;;;;;;;3.05;1.50;;;;;;;;;;5022653;28;20059;-79
2023/07/14 09:20:26;;;;;;;8.73;1.75;;;;;;;;;;5056177;28;20034;-79
2023/07/14 09:23:05;;;;;;;3.80;1.65;;;;;;;;;;5022231;28;20068;-80
2023/07/14 09:25:42;;;;;;;4.25;1.52;;;;;;;;;;5037757;28;20032;-78
2023/07/14 09:28:35;;;;;;;3.63;1.80;;;;;;;;;;5021837;28;20095;-78
2023/07/14 09:31:07;;;;;;;2.92;1.92;;;;;;;;;;5047082;28;20335;-79
2023/07/14 09:33:40;;;;;;;2.47;1.77;;;;;;;;;;5037357;28;20033;-79
2023/07/14 09:36:09;;;;;;;6.25;1.92;;;;;;;;;;5021184;28;20037;-81
2023/07/14 09:38:52;;;;;;;1.95;1.60;;;;;;;;;;5004904;28;20032;-81
2023/07/14 09:41:17;;;;;;;3.03;1.80;;;;;;;;;;5038321;28;20052;-80
2023/07/14 09:44:24;;;;;;;2.78;1.75;;;;;;;;;;5022328;28;20448;-79
2023/07/14 09:46:49;;;;;;;5.90;1.75;;;;;;;;;;5044144;28;20387;-77
2023/07/14 09:49:36;;;;;;;5.53;1.90;;;;;;;;;;5022687;28;20029;-79
2023/07/14 09:52:12;;;;;;;5.30;2.23;;;;;;;;;;5022055;28;20032;-79
2023/07/14 09:54:57;;;;;;;7.03;1.90;;;;;;;;;;5039192;28;20028;-79
2023/07/14 09:57:38;;;;;;;2.00;1.45;;;;;;;;;;5021995;28;20052;-79
2023/07/14 10:00:15;;;;;;;3.53;1.75;;;;;;;;;;5022835;28;20076;-78
2023/07/14 10:02:40;;;;;;;3.65;2.00;;;;;;;;;;5023420;28;20028;-80
2023/07/14 10:05:30;;;;;;;3.33;1.58;;;;;;;;;;5005083;28;20037;-79
2023/07/14 10:07:55;;;;;;;5.68;1.92;;;;;;;;;;5038216;28;20093;-81
2023/07/14 10:10:24;;;;;;;3.47;1.70;;;;;;;;;;5037949;28;20107;-79
2023/07/14 10:12:50;;;;;;;3.13;1.50;;;;;;;;;;5006496;28;20028;-80
2023/07/14 10:15:46;;;;;;;3.67;1.65;;;;;;;;;;5038257;28;20025;-82
2023/07/14 10:18:13;;;;;;;4.00;1.58;;;;;;;;;;5037768;28;20538;-79
2023/07/14 10:20:39;;;;;;;8.70;1.50;;;;;;;;;;5055601;28;20025;-80
2023/07/14 10:23:20;;;;;;;2.85;1.50;;;;;;;;;;5005376;28;20032;-81
2023/07/14 10:25:50;;;;;;;3.55;1.73;;;;;;;;;;5038821;28;20025;-80
2023/07/14 10:28:19;;;;;;;3.65;1.50;;;;;;;;;;5022106;28;20355;-80
2023/07/14 10:31:03;;;;;;;1.80;1.40;;;;;;;;;;5037725;28;20025;-79
2023/07/14 10:33:43;;;;;;;3.83;1.63;;;;;;;;;;5055864;28;20028;-81
2023/07/14 10:36:11;;;;;;;2.80;1.63;;;;;;;;;;5037636;28;20092;-80
2023/07/14 10:38:45;;;;;;;2.30;1.60;;;;;;;;;;5037597;28;20043;-80
2023/07/14 10:41:10;;;;;;;2.95;1.75;;;;;;;;;;5038149;28;20035;-82
2023/07/14 10:43:46;;;;;;;3.08;1.60;;;;;;;;;;5020759;28;20037;-82
2023/07/14 10:46:17;;;;;;;2.15;1.77;;;;;;;;;;5037428;28;20075;-81
2023/07/14 10:48:48;;;;;;;1.58;1.45;;;;;;;;;;5004870;28;20131;-80
2023/07/14 10:51:27;;;;;;;6.32;3.97;;;;;;;;;;5037062;28;20365;-80
2023/07/14 10:54:05;;;;;;;3.70;1.60;;;;;;;;;;5021011;28;20025;-80
2023/07/14 10:56:38;;;;;;;3.60;1.40;;;;;;;;;;5005206;28;20036;-80
2023/07/14 10:59:20;;;;;;;5.63;1.63;;;;;;;;;;5004744;28;20732;-80
2023/07/14 11:02:25;;;;;;;2.58;1.70;;;;;;;;;;5005009;28;20121;-78
2023/07/14 11:04:54;;;;;;;2.80;1.48;;;;;;;;;;5036557;28;20629;-78
2023/07/14 11:07:29;;;;;;;2.60;1.80;;;;;;;;;;5019702;28;20040;-78
2023/07/14 11:09:54;;;;;;;4.18;1.50;;;;;;;;;;5021538;28;20040;-79
2023/07/14 11:12:32;;;;;;;1.92;1.67;;;;;;;;;;5020415;28;20036;-78
2023/07/14 11:15:11;;;;;;;3.47;1.50;;;;;;;;;;5037710;28;20025;-80
2023/07/14 11:17:39;;;;;;;3.75;1.58;;;;;;;;;;5038035;28;20025;-81
2023/07/14 11:20:19;;;;;;;2.95;1.65;;;;;;;;;;5054521;28;20122;-80
2023/07/14 11:23:27;;;;;;;2.78;1.48;;;;;;;;;;5020467;28;20422;-79
2023/07/14 11:26:12;;;;;;;2.28;1.60;;;;;;;;;;5028858;28;20041;-79
2023/07/14 11:28:47;;;;;;;4.70;1.38;;;;;;;;;;5036515;28;20029;-81
2023/07/14 11:31:23;;;;;;;2.00;1.42;;;;;;;;;;5054479;28;20368;-82
2023/07/14 11:34:13;;;;;;;3.20;1.50;;;;;;;;;;5020354;28;20432;-83
2023/07/14 11:36:57;;;;;;;4.82;1.50;;;;;;;;;;5054326;28;20029;-82
2023/07/14 11:39:40;;;;;;;3.15;1.58;;;;;;;;;;5054288;28;20036;-81
2023/07/14 11:42:16;;;;;;;7.15;1.65;;;;;;;;;;5036550;28;20119;-81
2023/07/14 11:44:41;;;;;;;3.80;1.33;;;;;;;;;;5037051;28;20087;-82
2023/07/14 11:47:10;;;;;;;1.58;1.20;;;;;;;;;;5036298;28;20033;-81
2023/07/14 11:49:36;;;;;;;3.97;1.90;;;;;;;;;;5020094;28;20017;-79
2023/07/14 11:52:12;;;;;;;2.47;1.85;;;;;;;;;;5019815;28;20028;-78
2023/07/14 11:54:53;;;;;;;2.50;1.52;;;;;;;;;;5019822;28;20029;-79
2023/07/14 11:57:18;;;;;;;1.80;1.40;;;;;;;;;;5036238;28;20033;-80
2023/07/14 12:00:00;;;;;;;6.22;1.98;;;;;;;;;;5036770;28;20486;-80
2023/07/14 12:02:35;;;;;;;2.75;1.60;;;;;;;;;;5020910;28;20025;-81
2023/07/14 12:05:24;;;;;;;3.28;1.50;;;;;;;;;;5053671;28;20099;-81
2023/07/14 12:08:05;;;;;;;3.88;1.92;;;;;;;;;;5032901;28;20460;-81
2023/07/14 12:10:40;;;;;;;5.00;1.80;;;;;;;;;;5054126;28;20094;-80
2023/07/14 12:13:28;;;;;;;3.63;1.90;;;;;;;;;;5059161;28;20032;-80
2023/07/14 12:15:54;;;;;;;1.90;1.70;;;;;;;;;;5044921;28;20060;-81
2023/07/14 12:18:25;;;;;;;2.42;1.45;;;;;;;;;;5064841;28;20118;-81
2023/07/14 12:20:51;;;;;;;4.18;1.77;;;;;;;;;;5064554;28;20029;-79
2023/07/14 12:23:26;;;;;;;3.28;1.88;;;;;;;;;;5033843;28;20035;-82
2023/07/14 12:26:00;;;;;;;4.85;1.70;;;;;;;;;;5041277;28;20060;-79
2023/07/14 12:28:30;;;;;;;2.80;1.80;;;;;;;;;;5023911;28;20440;-79
2023/07/14 12:31:03;;;;;;;3.00;1.70;;;;;;;;;;5043008;28;20036;-78
2023/07/14 12:33:28;;;;;;;3.08;1.92;;;;;;;;;;5039879;28;20075;-80
2023/07/14 12:35:54;;;;;;;3.60;1.60;;;;;;;;;;5008511;28;20024;-80
2023/07/14 12:38:22;;;;;;;5.93;2.20;;;;;;;;;;5039673;28;20482;-80
2023/07/14 12:40:49;;;;;;;6.40;2.08;;;;;;;;;;5039819;28;20025;-81
2023/07/14 12:43:43;;;;;;;2.17;1.95;;;;;;;;;;5023257;28;20025;-80
2023/07/14 12:46:22;;;;;;;4.88;1.80;;;;;;;;;;5055146;28;20045;-80
2023/07/14 12:48:48;;;;;;;3.47;1.92;;;;;;;;;;5023058;28;20357;-82
2023/07/14 12:51:15;;;;;;;5.32;2.00;;;;;;;;;;5039332;28;20033;-81
2023/07/14 12:53:41;;;;;;;12.80;2.28;;;;;;;;;;5006631;28;20411;-78
2023/07/14 12:56:11;;;;;;;5.38;2.03;;;;;;;;;;5022903;28;20029;-81
2023/07/14 12:58:37;;;;;;;5.90;2.00;;;;;;;;;;5039127;28;20036;-82
2023/07/14 13:01:03;;;;;;;3.22;2.20;;;;;;;;;;5022959;28;20033;-80
2023/07/14 13:03:33;;;;;;;2.22;2.03;;;;;;;;;;5023110;28;20524;-78
2023/07/14 13:05:59;;;;;;;4.07;2.20;;;;;;;;;;5022882;28;20061;-78
2023/07/14 13:08:26;;;;;;;3.35;2.25;;;;;;;;;;5039593;28;20036;-78
2023/07/14 13:10:53;;;;;;;6.53;2.40;;;;;;;;;;5022573;28;20033;-79
2023/07/14 13:13:33;;;;;;;3.15;2.30;;;;;;;;;;5039020;28;20057;-78
2023/07/14 13:16:00;;;;;;;5.85;2.20;;;;;;;;;;5023266;28;20033;-79
2023/07/14 13:18:32;;;;;;;2.97;2.22;;;;;;;;;;5022463;28;20456;-79
2023/07/14 13:21:00;;;;;;;5.20;2.42;;;;;;;;;;5022635;28;20479;-78
2023/07/14 13:23:30;;;;;;;5.78;2.50;;;;;;;;;;5038998;28;20036;-82
2023/07/14 13:25:58;;;;;;;4.32;2.70;;;;;;;;;;5006186;28;20039;-82
2023/07/14 13:28:54;;;;;;;3.40;2.37;;;;;;;;;;5038666;28;20035;-80
2023/07/14 13:31:21;;;;;;;5.82;2.80;;;;;;;;;;5024210;28;20122;-81
2023/07/14 13:33:49;;;;;;;7.20;2.45;;;;;;;;;;5039400;28;20029;-79
2023/07/14 13:36:21;;;;;;;5.05;2.80;;;;;;;;;;5040810;28;20531;-82
2023/07/14 13:38:47;;;;;;;7.45;2.70;;;;;;;;;;5037692;28;20061;-79
2023/07/14 13:41:17;;;;;;;5.93;2.70;;;;;;;;;;5036866;28;20016;-82
2023/07/14 13:43:44;;;;;;;5.20;2.85;;;;;;;;;;5041742;28;20005;-84
2023/07/14 13:46:16;;;;;;;7.32;3.28;;;;;;;;;;5026574;28;20052;-88
2023/07/14 13:48:42;;;;;;;6.25;2.92;;;;;;;;;;5051575;28;20035;-79
2023/07/14 13:51:15;;;;;;;6.53;2.63;;;;;;;;;;5055924;28;20441;-80
2023/07/14 13:53:41;;;;;;;5.18;3.05;;;;;;;;;;5006590;28;20033;-81
2023/07/14 13:56:12;;;;;;;3.40;3.00;;;;;;;;;;5038204;28;20391;-79
2023/07/14 13:58:38;;;;;;;3.35;3.00;;;;;;;;;;5021780;28;20103;-80
2023/07/14 14:01:04;;;;;;;10.05;7.80;;;;;;;;;;5038007;28;20029;-81
2023/07/14 14:03:30;;;;;;;7.65;6.93;;;;;;;;;;5021808;28;20079;-83
2023/07/14 14:05:55;;;;;;;7.95;7.15;;;;;;;;;;5021565;28;20048;-82
2023/07/14 14:08:40;;;;;;;13.18;9.27;;;;;;;;;;5037930;28;20040;-82
2023/07/14 14:11:05;;;;;;;6.03;5.43;;;;;;;;;;5056061;28;20365;-84
2023/07/14 14:13:31;;;;;;;5.00;3.80;;;;;;;;;;5055602;28;20079;-83
2023/07/14 14:15:56;;;;;;;4.45;3.30;;;;;;;;;;5005046;28;20122;-81
2023/07/14 14:18:23;;;;;;;3.65;3.35;;;;;;;;;;5020792;28;20091;-80
2023/07/14 14:20:49;;;;;;;5.53;3.42;;;;;;;;;;5037660;28;20120;-79
2023/07/14 14:23:17;;;;;;;3.50;3.20;;;;;;;;;;5038075;28;20120;-81
2023/07/14 14:25:42;;;;;;;7.40;3.50;;;;;;;;;;5037665;28;20033;-82
2023/07/14 14:28:08;;;;;;;7.15;3.63;;;;;;;;;;5037784;28;20357;-81
2023/07/14 14:30:34;;;;;;;3.97;3.17;;;;;;;;;;5055271;28;20353;-82
2023/07/14 14:33:00;;;;;;;7.22;3.33;;;;;;;;;;5037346;28;20044;-79
2023/07/14 14:35:32;;;;;;;6.78;3.50;;;;;;;;;;5037593;28;20083;-79
2023/07/14 14:38:01;;;;;;;4.88;3.50;;;;;;;;;;5037840;28;20415;-81
2023/07/14 14:40:28;;;;;;;4.78;3.70;;;;;;;;;;5020707;28;20040;-80
2023/07/14 14:43:10;;;;;;;5.90;3.45;;;;;;;;;;5020691;28;20025;-82
2023/07/14 14:45:35;;;;;;;6.07;3.50;;;;;;;;;;5006295;28;20032;-82
2023/07/14 14:48:01;;;;;;;7.35;3.20;;;;;;;;;;5004294;28;20333;-81
2023/07/14 14:50:26;;;;;;;4.25;3.40;;;;;;;;;;5037309;28;20108;-79
2023/07/14 14:52:52;;;;;;;4.88;3.28;;;;;;;;;;5054817;28;20028;-81
2023/07/14 14:55:18;;;;;;;6.40;3.50;;;;;;;;;;5037193;28;20036;-80